createdAt,value
2023-04-13T00:07:02.791Z,17.52
2023-04-13T00:22:09.676Z,16.40
2023-04-13T00:37:14.870Z,16.42
2023-04-13T00:52:21.350Z,15.75
2023-04-13T01:07:47.551Z,15.80
2023-04-13T01:23:00.563Z,16.40
2023-04-13T01:38:06.950Z,19.02
2023-04-13T01:53:17.949Z,19.45
2023-04-13T02:08:23.119Z,20.12
2023-04-13T02:23:28.579Z,19.73
2023-04-13T02:38:34.379Z,21.42
2023-04-13T02:53:41.185Z,22.45
2023-04-13T03:08:46.498Z,26.25
2023-04-13T03:23:56.365Z,26.43
2023-04-13T03:39:01.990Z,24.63
2023-04-13T03:54:08.670Z,23.87
2023-04-13T04:09:14.301Z,28.17
2023-04-13T04:24:23.926Z,22.98
2023-04-13T04:39:32.292Z,25.97
2023-04-13T04:54:40.006Z,51.37
2023-04-13T05:09:47.022Z,48.08
2023-04-13T05:24:52.238Z,44.77
2023-04-13T05:39:58.449Z,27.00
2023-04-13T05:55:08.223Z,25.23
2023-04-13T06:10:16.593Z,22.45
2023-04-13T06:25:22.457Z,19.23
2023-04-13T06:40:28.290Z,18.98
2023-04-13T06:55:37.953Z,19.27
2023-04-13T07:10:43.902Z,15.98
2023-04-13T07:25:50.738Z,17.75
2023-04-13T07:40:57.399Z,16.85
2023-04-13T07:56:05.573Z,15.40
2023-04-13T08:11:12.583Z,16.25
2023-04-13T08:26:23.321Z,14.38
2023-04-13T08:41:29.040Z,12.58
2023-04-13T08:56:45.303Z,15.38
2023-04-13T09:11:42.094Z,16.95
2023-04-13T09:26:48.970Z,15.68
2023-04-13T09:41:55.138Z,14.13
2023-04-13T09:57:00.224Z,14.35
2023-04-13T10:12:07.849Z,13.18
2023-04-13T10:27:21.594Z,12.88
2023-04-13T10:42:27.987Z,12.23
2023-04-13T10:57:35.183Z,10.65
2023-04-13T11:12:40.215Z,11.15
2023-04-13T11:27:46.840Z,9.75
2023-04-13T11:42:56.720Z,6.37
2023-04-13T11:58:13.496Z,6.12
2023-04-13T12:13:31.092Z,8.38
2023-04-13T12:28:34.182Z,8.90
2023-04-13T12:43:39.085Z,8.35
2023-04-13T12:58:46.950Z,7.28
2023-04-13T13:13:53.118Z,8.28
2023-04-13T13:28:59.467Z,10.28
2023-04-13T13:44:08.556Z,10.98
2023-04-13T13:59:15.265Z,11.90
2023-04-13T14:14:22.542Z,10.72
2023-04-13T14:29:28.105Z,10.60
2023-04-13T14:44:36.575Z,11.83
2023-04-13T14:59:45.530Z,10.70
2023-04-13T15:14:52.872Z,10.90
2023-04-13T15:30:03.297Z,9.80
2023-04-13T15:45:09.559Z,11.35
2023-04-13T16:00:15.207Z,6.40
2023-04-13T16:15:20.336Z,14.30
2023-04-13T16:30:25.867Z,9.78
2023-04-13T16:45:30.926Z,11.50
2023-04-13T17:00:36.061Z,10.25
2023-04-13T17:15:41.541Z,9.05
2023-04-13T17:30:46.568Z,6.90
2023-04-13T17:45:52.260Z,18.25
2023-04-13T18:00:57.370Z,22.85
2023-04-13T18:16:02.635Z,9.03
2023-04-13T18:31:09.210Z,20.85
2023-04-13T18:46:14.514Z,19.65
2023-04-13T19:01:20.350Z,23.15
2023-04-13T19:16:26.164Z,18.85
2023-04-13T19:31:31.648Z,12.28
2023-04-13T19:46:37.193Z,15.23
2023-04-13T20:01:43.907Z,12.40
2023-04-13T20:16:49.496Z,15.20
2023-04-13T20:31:55.359Z,15.38
2023-04-13T20:47:02.073Z,26.17
2023-04-13T21:02:07.546Z,20.97
2023-04-13T21:17:14.058Z,22.35
2023-04-13T21:32:19.125Z,22.75
2023-04-13T21:47:24.553Z,24.50
2023-04-13T22:02:29.662Z,27.67
2023-04-13T22:17:34.788Z,26.87
2023-04-13T22:32:41.433Z,28.07
2023-04-13T22:47:46.507Z,24.47
2023-04-13T23:02:53.392Z,27.48
2023-04-13T23:17:58.556Z,24.15
2023-04-13T23:33:03.580Z,27.32
2023-04-13T23:48:08.628Z,27.32
